sensor_id;sensor_type;location;lat;lon;timestamp;pressure;altitude;pressure_sealevel;temperature;humidity
85119;BME280;75469;47.654;10.494;2024-03-08T00:02:14;91312.47;;;-0.75;91.95
85119;BME280;75469;47.654;10.494;2024-03-08T00:04:40;91318.44;;;-0.75;92.32
85119;BME280;75469;47.654;10.494;2024-03-08T00:07:06;91316.13;;;-0.85;92.29
85119;BME280;75469;47.654;10.494;2024-03-08T00:09:32;91317.81;;;-0.80;92.13
85119;BME280;75469;47.654;10.494;2024-03-08T00:11:59;91314.47;;;-0.81;92.06
85119;BME280;75469;47.654;10.494;2024-03-08T00:14:25;91313.38;;;-0.88;92.12
85119;BME280;75469;47.654;10.494;2024-03-08T00:16:51;91307.56;;;-0.94;92.47
85119;BME280;75469;47.654;10.494;2024-03-08T00:19:19;91302.84;;;-1.01;92.88
85119;BME280;75469;47.654;10.494;2024-03-08T00:21:44;91304.38;;;-0.91;92.54
85119;BME280;75469;47.654;10.494;2024-03-08T00:24:10;91303.13;;;-0.94;92.43
85119;BME280;75469;47.654;10.494;2024-03-08T00:26:36;91296.56;;;-1.00;92.64
85119;BME280;75469;47.654;10.494;2024-03-08T00:29:02;91297.34;;;-0.90;92.94
85119;BME280;75469;47.654;10.494;2024-03-08T00:31:28;91297.78;;;-1.06;92.72
85119;BME280;75469;47.654;10.494;2024-03-08T00:33:56;91295.81;;;-1.00;92.69
85119;BME280;75469;47.654;10.494;2024-03-08T00:36:22;91289.09;;;-0.93;92.99
85119;BME280;75469;47.654;10.494;2024-03-08T00:38:48;91290.91;;;-0.84;92.79
85119;BME280;75469;47.654;10.494;2024-03-08T00:41:14;91287.56;;;-0.85;92.56
85119;BME280;75469;47.654;10.494;2024-03-08T00:43:40;91284.53;;;-0.78;92.13
85119;BME280;75469;47.654;10.494;2024-03-08T00:46:06;91284.69;;;-0.83;92.12
85119;BME280;75469;47.654;10.494;2024-03-08T00:48:32;91281.47;;;-0.63;91.36
85119;BME280;75469;47.654;10.494;2024-03-08T00:50:58;91279.34;;;-0.78;91.88
85119;BME280;75469;47.654;10.494;2024-03-08T00:53:23;91277.78;;;-0.79;92.17
85119;BME280;75469;47.654;10.494;2024-03-08T00:55:49;91284.81;;;-0.88;91.68
85119;BME280;75469;47.654;10.494;2024-03-08T00:58:15;91279.94;;;-0.90;92.22
85119;BME280;75469;47.654;10.494;2024-03-08T01:00:40;91280.38;;;-0.79;91.91
85119;BME280;75469;47.654;10.494;2024-03-08T01:03:07;91274.44;;;-0.71;91.17
85119;BME280;75469;47.654;10.494;2024-03-08T01:05:33;91274.44;;;-0.88;91.37
85119;BME280;75469;47.654;10.494;2024-03-08T01:07:59;91280.38;;;-0.97;91.97
85119;BME280;75469;47.654;10.494;2024-03-08T01:10:24;91273.66;;;-0.98;92.20
85119;BME280;75469;47.654;10.494;2024-03-08T01:12:50;91279.63;;;-0.97;92.39
85119;BME280;75469;47.654;10.494;2024-03-08T01:15:16;91264.03;;;-0.97;92.52
85119;BME280;75469;47.654;10.494;2024-03-08T01:17:43;91266.66;;;-0.88;92.53
85119;BME280;75469;47.654;10.494;2024-03-08T01:20:09;91257.50;;;-0.86;92.60
85119;BME280;75469;47.654;10.494;2024-03-08T01:22:38;91256.72;;;-0.86;92.25
85119;BME280;75469;47.654;10.494;2024-03-08T01:25:04;91252.44;;;-0.91;92.20
85119;BME280;75469;47.654;10.494;2024-03-08T01:27:30;91246.03;;;-0.85;92.02
85119;BME280;75469;47.654;10.494;2024-03-08T01:29:56;91245.13;;;-0.80;92.07
85119;BME280;75469;47.654;10.494;2024-03-08T01:32:24;91243.28;;;-0.80;91.83
85119;BME280;75469;47.654;10.494;2024-03-08T01:34:50;91237.19;;;-0.75;92.04
85119;BME280;75469;47.654;10.494;2024-03-08T01:37:16;91239.00;;;-0.76;91.52
85119;BME280;75469;47.654;10.494;2024-03-08T01:39:43;91233.34;;;-0.78;91.87
85119;BME280;75469;47.654;10.494;2024-03-08T01:42:09;91228.44;;;-0.71;91.68
85119;BME280;75469;47.654;10.494;2024-03-08T01:44:38;91230.56;;;-0.64;91.41
85119;BME280;75469;47.654;10.494;2024-03-08T01:47:05;91228.91;;;-0.68;91.14
85119;BME280;75469;47.654;10.494;2024-03-08T01:49:31;91223.13;;;-0.74;91.34
85119;BME280;75469;47.654;10.494;2024-03-08T01:51:56;91225.09;;;-0.71;91.74
85119;BME280;75469;47.654;10.494;2024-03-08T01:54:22;91227.69;;;-0.62;91.52
85119;BME280;75469;47.654;10.494;2024-03-08T01:56:48;91210.88;;;-0.56;91.25
85119;BME280;75469;47.654;10.494;2024-03-08T01:59:15;91205.94;;;-0.49;91.10
85119;BME280;75469;47.654;10.494;2024-03-08T02:01:41;91201.09;;;-0.51;90.93
85119;BME280;75469;47.654;10.494;2024-03-08T02:04:06;91194.97;;;-0.55;90.50
85119;BME280;75469;47.654;10.494;2024-03-08T02:06:32;91205.66;;;-0.48;90.35
85119;BME280;75469;47.654;10.494;2024-03-08T02:08:58;91205.97;;;-0.58;90.62
85119;BME280;75469;47.654;10.494;2024-03-08T02:11:24;91192.69;;;-0.65;91.08
85119;BME280;75469;47.654;10.494;2024-03-08T02:13:49;91198.97;;;-0.66;90.97
85119;BME280;75469;47.654;10.494;2024-03-08T02:16:21;91190.41;;;-0.66;91.13
85119;BME280;75469;47.654;10.494;2024-03-08T02:18:48;91194.81;;;-0.58;91.11
85119;BME280;75469;47.654;10.494;2024-03-08T02:21:13;91192.25;;;-0.76;91.07
85119;BME280;75469;47.654;10.494;2024-03-08T02:23:43;91184.44;;;-0.67;90.90
85119;BME280;75469;47.654;10.494;2024-03-08T02:26:09;91182.91;;;-0.59;90.11
85119;BME280;75469;47.654;10.494;2024-03-08T02:28:34;91175.56;;;-0.57;90.72
85119;BME280;75469;47.654;10.494;2024-03-08T02:31:00;91174.69;;;-0.70;91.26
85119;BME280;75469;47.654;10.494;2024-03-08T02:33:27;91175.28;;;-0.73;91.27
85119;BME280;75469;47.654;10.494;2024-03-08T02:35:53;91170.09;;;-0.73;91.56
85119;BME280;75469;47.654;10.494;2024-03-08T02:38:21;91174.25;;;-0.81;91.42
85119;BME280;75469;47.654;10.494;2024-03-08T02:40:49;91178.66;;;-0.81;91.19
85119;BME280;75469;47.654;10.494;2024-03-08T02:43:16;91174.56;;;-0.82;91.00
85119;BME280;75469;47.654;10.494;2024-03-08T02:45:43;91168.91;;;-0.84;91.15
85119;BME280;75469;47.654;10.494;2024-03-08T02:48:09;91166.91;;;-0.79;91.32
85119;BME280;75469;47.654;10.494;2024-03-08T02:50:36;91171.06;;;-0.86;90.75
85119;BME280;75469;47.654;10.494;2024-03-08T02:53:02;91160.66;;;-0.78;90.77
85119;BME280;75469;47.654;10.494;2024-03-08T02:55:28;91170.31;;;-0.87;91.14
85119;BME280;75469;47.654;10.494;2024-03-08T02:57:53;91155.47;;;-0.86;91.06
85119;BME280;75469;47.654;10.494;2024-03-08T03:00:23;91168.25;;;-0.73;90.96
85119;BME280;75469;47.654;10.494;2024-03-08T03:02:51;91163.13;;;-0.90;91.28
85119;BME280;75469;47.654;10.494;2024-03-08T03:05:25;91160.22;;;-0.88;91.29
85119;BME280;75469;47.654;10.494;2024-03-08T03:07:51;91158.22;;;-0.83;91.19
85119;BME280;75469;47.654;10.494;2024-03-08T03:10:17;91163.75;;;-0.93;91.44
85119;BME280;75469;47.654;10.494;2024-03-08T03:12:44;91157.78;;;-0.94;91.44
85119;BME280;75469;47.654;10.494;2024-03-08T03:15:15;91159.34;;;-1.10;91.69
85119;BME280;75469;47.654;10.494;2024-03-08T03:17:49;91155.34;;;-0.99;91.60
85119;BME280;75469;47.654;10.494;2024-03-08T03:20:18;91155.38;;;-1.07;92.01
85119;BME280;75469;47.654;10.494;2024-03-08T03:22:58;91144.22;;;-1.08;91.98
85119;BME280;75469;47.654;10.494;2024-03-08T03:25:26;91139.59;;;-0.94;91.45
85119;BME280;75469;47.654;10.494;2024-03-08T03:27:54;91144.53;;;-1.09;92.21
85119;BME280;75469;47.654;10.494;2024-03-08T03:30:23;91137.81;;;-1.10;92.33
85119;BME280;75469;47.654;10.494;2024-03-08T03:32:49;91143.59;;;-1.05;91.66
85119;BME280;75469;47.654;10.494;2024-03-08T03:35:20;91139.50;;;-1.23;92.06
85119;BME280;75469;47.654;10.494;2024-03-08T03:37:47;91140.25;;;-1.14;92.33
85119;BME280;75469;47.654;10.494;2024-03-08T03:40:32;91139.94;;;-1.21;92.14
85119;BME280;75469;47.654;10.494;2024-03-08T03:42:57;91134.00;;;-1.04;92.56
85119;BME280;75469;47.654;10.494;2024-03-08T03:45:24;91127.09;;;-1.00;92.01
85119;BME280;75469;47.654;10.494;2024-03-08T03:47:49;91136.88;;;-1.06;91.87
85119;BME280;75469;47.654;10.494;2024-03-08T03:50:15;91134.28;;;-1.06;91.87
85119;BME280;75469;47.654;10.494;2024-03-08T03:52:41;91131.13;;;-1.20;92.21
85119;BME280;75469;47.654;10.494;2024-03-08T03:55:08;91119.50;;;-1.14;92.27
85119;BME280;75469;47.654;10.494;2024-03-08T03:57:33;91115.06;;;-1.05;91.72
85119;BME280;75469;47.654;10.494;2024-03-08T03:59:59;91115.84;;;-1.13;91.73
85119;BME280;75469;47.654;10.494;2024-03-08T04:02:25;91118.56;;;-1.09;91.87
85119;BME280;75469;47.654;10.494;2024-03-08T04:04:54;91122.38;;;-1.07;91.68
85119;BME280;75469;47.654;10.494;2024-03-08T04:07:20;91122.38;;;-0.98;91.40
85119;BME280;75469;47.654;10.494;2024-03-08T04:09:46;91130.78;;;-1.19;91.07
85119;BME280;75469;47.654;10.494;2024-03-08T04:12:11;91116.59;;;-1.30;91.50
85119;BME280;75469;47.654;10.494;2024-03-08T04:14:40;91121.03;;;-1.22;91.74
85119;BME280;75469;47.654;10.494;2024-03-08T04:17:07;91120.13;;;-1.17;91.66
85119;BME280;75469;47.654;10.494;2024-03-08T04:19:35;91117.41;;;-1.29;91.48
85119;BME280;75469;47.654;10.494;2024-03-08T04:22:01;91115.25;;;-1.36;91.65
85119;BME280;75469;47.654;10.494;2024-03-08T04:24:27;91114.81;;;-1.38;91.71
85119;BME280;75469;47.654;10.494;2024-03-08T04:26:53;91110.34;;;-1.20;91.69
85119;BME280;75469;47.654;10.494;2024-03-08T04:29:18;91107.91;;;-1.34;91.82
85119;BME280;75469;47.654;10.494;2024-03-08T04:31:44;91102.88;;;-1.30;92.24
85119;BME280;75469;47.654;10.494;2024-03-08T04:34:10;91108.38;;;-1.41;92.52
85119;BME280;75469;47.654;10.494;2024-03-08T04:36:36;91106.25;;;-1.47;91.99
85119;BME280;75469;47.654;10.494;2024-03-08T04:39:02;91103.06;;;-1.44;92.15
85119;BME280;75469;47.654;10.494;2024-03-08T04:41:28;91104.09;;;-1.45;92.52
85119;BME280;75469;47.654;10.494;2024-03-08T04:43:56;91096.66;;;-1.55;91.92
85119;BME280;75469;47.654;10.494;2024-03-08T04:46:23;91094.34;;;-1.57;92.34
85119;BME280;75469;47.654;10.494;2024-03-08T04:48:49;91095.41;;;-1.41;92.15
85119;BME280;75469;47.654;10.494;2024-03-08T04:51:15;91099.72;;;-1.53;92.39
85119;BME280;75469;47.654;10.494;2024-03-08T04:53:41;91098.63;;;-1.44;92.21
85119;BME280;75469;47.654;10.494;2024-03-08T04:56:06;91102.72;;;-1.25;92.77
85119;BME280;75469;47.654;10.494;2024-03-08T04:58:35;91099.69;;;-1.45;91.90
85119;BME280;75469;47.654;10.494;2024-03-08T05:01:01;91097.25;;;-1.50;91.80
85119;BME280;75469;47.654;10.494;2024-03-08T05:03:27;91101.84;;;-1.55;92.34
85119;BME280;75469;47.654;10.494;2024-03-08T05:05:53;91101.84;;;-1.55;92.37
85119;BME280;75469;47.654;10.494;2024-03-08T05:08:18;91095.88;;;-1.65;92.64
85119;BME280;75469;47.654;10.494;2024-03-08T05:10:45;91099.84;;;-1.58;92.84
85119;BME280;75469;47.654;10.494;2024-03-08T05:13:10;91097.25;;;-1.41;92.44
85119;BME280;75469;47.654;10.494;2024-03-08T05:15:36;91088.72;;;-1.59;92.13
85119;BME280;75469;47.654;10.494;2024-03-08T05:18:02;91087.34;;;-1.65;92.19
85119;BME280;75469;47.654;10.494;2024-03-08T05:20:27;91087.34;;;-1.74;92.14
85119;BME280;75469;47.654;10.494;2024-03-08T05:22:53;91088.25;;;-1.78;92.62
85119;BME280;75469;47.654;10.494;2024-03-08T05:25:18;91091.59;;;-1.69;92.60
85119;BME280;75469;47.654;10.494;2024-03-08T05:27:44;91085.06;;;-1.58;92.62
85119;BME280;75469;47.654;10.494;2024-03-08T05:30:10;91087.66;;;-1.58;92.39
85119;BME280;75469;47.654;10.494;2024-03-08T05:32:43;91086.56;;;-1.66;92.18
85119;BME280;75469;47.654;10.494;2024-03-08T05:35:11;91090.56;;;-1.77;92.36
85119;BME280;75469;47.654;10.494;2024-03-08T05:37:38;91080.63;;;-1.84;92.42
85119;BME280;75469;47.654;10.494;2024-03-08T05:40:05;91076.97;;;-1.65;92.50
85119;BME280;75469;47.654;10.494;2024-03-08T05:42:35;91079.88;;;-1.67;92.50
85119;BME280;75469;47.654;10.494;2024-03-08T05:45:04;91077.75;;;-1.73;92.15
85119;BME280;75469;47.654;10.494;2024-03-08T05:47:32;91078.03;;;-1.75;92.70
85119;BME280;75469;47.654;10.494;2024-03-08T05:49:59;91077.75;;;-1.73;92.41
85119;BME280;75469;47.654;10.494;2024-03-08T05:52:25;91073.63;;;-1.83;92.43
85119;BME280;75469;47.654;10.494;2024-03-08T05:54:53;91078.81;;;-1.83;91.91
85119;BME280;75469;47.654;10.494;2024-03-08T05:57:19;91077.72;;;-1.99;92.66
85119;BME280;75469;47.654;10.494;2024-03-08T05:59:45;91069.19;;;-1.91;92.29
85119;BME280;75469;47.654;10.494;2024-03-08T06:02:10;91081.25;;;-2.04;92.39
85119;BME280;75469;47.654;10.494;2024-03-08T06:04:36;91071.19;;;-1.97;92.26
85119;BME280;75469;47.654;10.494;2024-03-08T06:07:02;91078.06;;;-1.92;92.14
85119;BME280;75469;47.654;10.494;2024-03-08T06:09:29;91079.84;;;-2.10;92.38
85119;BME280;75469;47.654;10.494;2024-03-08T06:11:55;91076.34;;;-2.05;92.43
85119;BME280;75469;47.654;10.494;2024-03-08T06:14:20;91081.56;;;-1.88;92.26
85119;BME280;75469;47.654;10.494;2024-03-08T06:16:46;91078.78;;;-2.00;92.35
85119;BME280;75469;47.654;10.494;2024-03-08T06:19:13;91077.09;;;-2.05;92.33
85119;BME280;75469;47.654;10.494;2024-03-08T06:21:39;91078.50;;;-2.08;92.64
85119;BME280;75469;47.654;10.494;2024-03-08T06:24:05;91078.19;;;-2.06;91.99
85119;BME280;75469;47.654;10.494;2024-03-08T06:26:31;91082.75;;;-2.03;91.92
85119;BME280;75469;47.654;10.494;2024-03-08T06:28:57;91076.69;;;-1.98;91.95
85119;BME280;75469;47.654;10.494;2024-03-08T06:31:24;91087.81;;;-1.98;91.23
85119;BME280;75469;47.654;10.494;2024-03-08T06:33:49;91089.47;;;-1.93;91.71
85119;BME280;75469;47.654;10.494;2024-03-08T06:36:18;91084.00;;;-1.83;91.88
85119;BME280;75469;47.654;10.494;2024-03-08T06:38:50;91082.78;;;-1.86;91.98
85119;BME280;75469;47.654;10.494;2024-03-08T06:41:15;91086.13;;;-1.85;91.66
85119;BME280;75469;47.654;10.494;2024-03-08T06:43:46;91083.22;;;-1.75;91.77
85119;BME280;75469;47.654;10.494;2024-03-08T06:46:12;91080.78;;;-1.80;91.83
85119;BME280;75469;47.654;10.494;2024-03-08T06:48:41;91084.28;;;-1.67;91.18
85119;BME280;75469;47.654;10.494;2024-03-08T06:51:06;91089.19;;;-1.74;91.11
85119;BME280;75469;47.654;10.494;2024-03-08T06:53:32;91093.59;;;-1.57;91.36
85119;BME280;75469;47.654;10.494;2024-03-08T06:56:00;91087.66;;;-1.58;90.53
85119;BME280;75469;47.654;10.494;2024-03-08T06:58:27;91079.25;;;-1.72;90.64
85119;BME280;75469;47.654;10.494;2024-03-08T07:00:53;91081.56;;;-1.71;90.83
85119;BME280;75469;47.654;10.494;2024-03-08T07:03:19;91083.06;;;-1.61;90.92
85119;BME280;75469;47.654;10.494;2024-03-08T07:05:44;91080.78;;;-1.54;90.58
85119;BME280;75469;47.654;10.494;2024-03-08T07:08:10;91080.00;;;-1.46;90.44
85119;BME280;75469;47.654;10.494;2024-03-08T07:10:39;91076.81;;;-1.51;89.75
85119;BME280;75469;47.654;10.494;2024-03-08T07:13:07;91072.97;;;-1.36;89.97
85119;BME280;75469;47.654;10.494;2024-03-08T07:15:33;91070.38;;;-1.36;89.47
85119;BME280;75469;47.654;10.494;2024-03-08T07:17:58;91063.16;;;-1.05;89.17
85119;BME280;75469;47.654;10.494;2024-03-08T07:20:25;91066.50;;;-1.04;88.34
85119;BME280;75469;47.654;10.494;2024-03-08T07:22:50;91071.22;;;-0.98;88.01
85119;BME280;75469;47.654;10.494;2024-03-08T07:25:16;91069.63;;;-0.81;87.78
85119;BME280;75469;47.654;10.494;2024-03-08T07:27:53;91067.72;;;-0.63;87.26
85119;BME280;75469;47.654;10.494;2024-03-08T07:30:20;91071.25;;;-0.59;86.46
85119;BME280;75469;47.654;10.494;2024-03-08T07:33:05;91065.50;;;-0.82;87.13
85119;BME280;75469;47.654;10.494;2024-03-08T07:35:32;91056.47;;;-0.38;86.05
85119;BME280;75469;47.654;10.494;2024-03-08T07:37:58;91056.09;;;-0.28;85.16
85119;BME280;75469;47.654;10.494;2024-03-08T07:40:25;91063.50;;;-0.09;84.36
85119;BME280;75469;47.654;10.494;2024-03-08T07:42:51;91058.84;;;-0.03;84.24
85119;BME280;75469;47.654;10.494;2024-03-08T07:45:17;91057.44;;;-0.21;84.68
85119;BME280;75469;47.654;10.494;2024-03-08T07:47:43;91059.44;;;-0.27;84.85
85119;BME280;75469;47.654;10.494;2024-03-08T07:50:09;91054.88;;;0.75;82.15
85119;BME280;75469;47.654;10.494;2024-03-08T07:52:35;91056.78;;;0.65;81.02
85119;BME280;75469;47.654;10.494;2024-03-08T07:55:04;91050.91;;;0.89;80.41
85119;BME280;75469;47.654;10.494;2024-03-08T07:57:31;91048.00;;;1.03;79.92
85119;BME280;75469;47.654;10.494;2024-03-08T07:59:57;91050.97;;;1.26;79.82
85119;BME280;75469;47.654;10.494;2024-03-08T08:02:22;91048.16;;;2.05;76.46
85119;BME280;75469;47.654;10.494;2024-03-08T08:04:48;91042.56;;;2.19;75.45
85119;BME280;75469;47.654;10.494;2024-03-08T08:07:14;91051.91;;;2.08;75.29
85119;BME280;75469;47.654;10.494;2024-03-08T08:09:40;91039.63;;;3.05;73.89
85119;BME280;75469;47.654;10.494;2024-03-08T08:12:10;91040.22;;;3.77;70.55
85119;BME280;75469;47.654;10.494;2024-03-08T08:14:40;91039.75;;;3.56;70.22
85119;BME280;75469;47.654;10.494;2024-03-08T08:17:06;91033.97;;;3.98;68.39
85119;BME280;75469;47.654;10.494;2024-03-08T08:19:34;91024.97;;;5.12;64.90
85119;BME280;75469;47.654;10.494;2024-03-08T08:22:03;91024.78;;;4.62;65.84
85119;BME280;75469;47.654;10.494;2024-03-08T08:24:29;91026.16;;;6.40;61.03
85119;BME280;75469;47.654;10.494;2024-03-08T08:26:54;91025.16;;;8.05;55.19
85119;BME280;75469;47.654;10.494;2024-03-08T08:29:20;91023.13;;;9.33;52.81
85119;BME280;75469;47.654;10.494;2024-03-08T08:31:49;91012.41;;;8.87;51.22
85119;BME280;75469;47.654;10.494;2024-03-08T08:34:16;91018.16;;;10.79;49.12
85119;BME280;75469;47.654;10.494;2024-03-08T08:36:44;91018.91;;;10.75;46.31
85119;BME280;75469;47.654;10.494;2024-03-08T08:39:11;91010.22;;;10.75;46.00
85119;BME280;75469;47.654;10.494;2024-03-08T08:41:39;90996.84;;;11.77;45.77
85119;BME280;75469;47.654;10.494;2024-03-08T08:44:07;90996.03;;;11.84;45.51
85119;BME280;75469;47.654;10.494;2024-03-08T08:46:38;90999.31;;;10.66;47.05
85119;BME280;75469;47.654;10.494;2024-03-08T08:49:04;90987.91;;;11.53;44.70
85119;BME280;75469;47.654;10.494;2024-03-08T08:51:31;90993.22;;;10.83;47.22
85119;BME280;75469;47.654;10.494;2024-03-08T08:53:59;90982.88;;;11.07;46.56
85119;BME280;75469;47.654;10.494;2024-03-08T08:56:24;90988.41;;;10.14;48.69
85119;BME280;75469;47.654;10.494;2024-03-08T08:58:51;90984.94;;;10.74;45.27
85119;BME280;75469;47.654;10.494;2024-03-08T09:01:19;90978.44;;;10.89;46.88
85119;BME280;75469;47.654;10.494;2024-03-08T09:03:47;90983.19;;;9.99;48.19
85119;BME280;75469;47.654;10.494;2024-03-08T09:06:13;90983.53;;;10.26;47.20
85119;BME280;75469;47.654;10.494;2024-03-08T09:08:39;90975.25;;;10.03;48.19
85119;BME280;75469;47.654;10.494;2024-03-08T09:11:05;90980.16;;;9.83;50.89
85119;BME280;75469;47.654;10.494;2024-03-08T09:13:32;90976.00;;;9.89;48.95
85119;BME280;75469;47.654;10.494;2024-03-08T09:15:59;90974.47;;;9.34;49.71
85119;BME280;75469;47.654;10.494;2024-03-08T09:18:25;90977.88;;;10.17;48.35
85119;BME280;75469;47.654;10.494;2024-03-08T09:20:50;90971.28;;;11.49;44.88
85119;BME280;75469;47.654;10.494;2024-03-08T09:23:19;90974.88;;;9.79;48.78
85119;BME280;75469;47.654;10.494;2024-03-08T09:25:45;90977.66;;;7.94;56.19
85119;BME280;75469;47.654;10.494;2024-03-08T09:28:12;90974.13;;;7.24;58.24
85119;BME280;75469;47.654;10.494;2024-03-08T09:30:38;90972.47;;;7.05;57.86
85119;BME280;75469;47.654;10.494;2024-03-08T09:33:05;90970.81;;;6.56;59.66
85119;BME280;75469;47.654;10.494;2024-03-08T09:35:31;90973.06;;;7.28;60.53
85119;BME280;75469;47.654;10.494;2024-03-08T09:37:56;90968.25;;;7.38;61.68
85119;BME280;75469;47.654;10.494;2024-03-08T09:40:22;90965.44;;;6.45;61.99
85119;BME280;75469;47.654;10.494;2024-03-08T09:42:49;90969.97;;;6.82;65.95
85119;BME280;75469;47.654;10.494;2024-03-08T09:45:16;90963.34;;;6.95;61.17
85119;BME280;75469;47.654;10.494;2024-03-08T09:47:44;90968.38;;;6.74;65.40
85119;BME280;75469;47.654;10.494;2024-03-08T09:50:10;90968.47;;;6.17;65.36
85119;BME280;75469;47.654;10.494;2024-03-08T09:52:41;90964.69;;;6.14;67.33
85119;BME280;75469;47.654;10.494;2024-03-08T09:55:10;90957.28;;;5.93;67.55
85119;BME280;75469;47.654;10.494;2024-03-08T09:57:42;90962.72;;;5.32;69.49
85119;BME280;75469;47.654;10.494;2024-03-08T10:00:31;90966.63;;;5.41;71.42
85119;BME280;75469;47.654;10.494;2024-03-08T10:03:01;90960.03;;;5.51;69.48
85119;BME280;75469;47.654;10.494;2024-03-08T10:05:26;90959.59;;;5.72;70.34
85119;BME280;75469;47.654;10.494;2024-03-08T10:07:52;90962.81;;;5.62;70.26
85119;BME280;75469;47.654;10.494;2024-03-08T10:10:18;90968.50;;;5.41;70.45
85119;BME280;75469;47.654;10.494;2024-03-08T10:12:45;90962.78;;;5.85;69.99
85119;BME280;75469;47.654;10.494;2024-03-08T10:15:11;90961.97;;;5.54;69.25
85119;BME280;75469;47.654;10.494;2024-03-08T10:17:37;90954.75;;;6.01;70.90
85119;BME280;75469;47.654;10.494;2024-03-08T10:20:25;90955.41;;;5.67;68.60
85119;BME280;75469;47.654;10.494;2024-03-08T10:22:52;90946.00;;;5.40;72.12
85119;BME280;75469;47.654;10.494;2024-03-08T10:25:19;90949.25;;;4.87;72.07
85119;BME280;75469;47.654;10.494;2024-03-08T10:27:45;90954.16;;;4.89;75.83
85119;BME280;75469;47.654;10.494;2024-03-08T10:30:14;90939.44;;;4.80;71.98
85119;BME280;75469;47.654;10.494;2024-03-08T10:32:40;90948.91;;;4.66;73.63
85119;BME280;75469;47.654;10.494;2024-03-08T10:35:09;90941.63;;;4.55;74.46
85119;BME280;75469;47.654;10.494;2024-03-08T10:40:17;90949.47;;;4.17;75.08
85119;BME280;75469;47.654;10.494;2024-03-08T10:42:52;90949.78;;;4.73;75.82
85119;BME280;75469;47.654;10.494;2024-03-08T10:48:44;90944.13;;;5.40;73.83
85119;BME280;75469;47.654;10.494;2024-03-08T10:51:11;90953.03;;;5.09;72.08
85119;BME280;75469;47.654;10.494;2024-03-08T10:53:38;90951.56;;;5.12;76.73
85119;BME280;75469;47.654;10.494;2024-03-08T10:56:07;90949.75;;;5.16;72.45
85119;BME280;75469;47.654;10.494;2024-03-08T10:58:36;90945.91;;;5.10;73.86
85119;BME280;75469;47.654;10.494;2024-03-08T11:01:02;90945.13;;;5.32;74.37
85119;BME280;75469;47.654;10.494;2024-03-08T11:06:17;90941.00;;;5.31;72.55
85119;BME280;75469;47.654;10.494;2024-03-08T11:08:44;90940.72;;;4.67;75.04
85119;BME280;75469;47.654;10.494;2024-03-08T11:13:53;90941.53;;;4.94;79.76
85119;BME280;75469;47.654;10.494;2024-03-08T11:16:38;90930.00;;;4.76;75.33
85119;BME280;75469;47.654;10.494;2024-03-08T11:19:23;90926.78;;;4.63;75.48
85119;BME280;75469;47.654;10.494;2024-03-08T11:22:00;90928.31;;;4.87;79.85
85119;BME280;75469;47.654;10.494;2024-03-08T11:24:26;90925.53;;;4.76;78.06
85119;BME280;75469;47.654;10.494;2024-03-08T11:26:58;90916.66;;;4.62;75.90
85119;BME280;75469;47.654;10.494;2024-03-08T11:32:08;90927.22;;;4.46;77.78
85119;BME280;75469;47.654;10.494;2024-03-08T11:34:40;90919.56;;;4.56;79.61
85119;BME280;75469;47.654;10.494;2024-03-08T11:37:13;90920.91;;;4.27;80.86
85119;BME280;75469;47.654;10.494;2024-03-08T11:39:55;90914.75;;;4.39;77.99
85119;BME280;75469;47.654;10.494;2024-03-08T11:42:25;90903.31;;;4.47;79.66
85119;BME280;75469;47.654;10.494;2024-03-08T11:44:51;90904.97;;;4.36;78.32
85119;BME280;75469;47.654;10.494;2024-03-08T11:47:18;90902.66;;;4.31;76.94
85119;BME280;75469;47.654;10.494;2024-03-08T11:49:44;90904.16;;;4.32;79.16
85119;BME280;75469;47.654;10.494;2024-03-08T11:52:11;90892.66;;;4.17;80.75
85119;BME280;75469;47.654;10.494;2024-03-08T11:54:48;90896.09;;;4.41;79.07
85119;BME280;75469;47.654;10.494;2024-03-08T11:57:21;90887.75;;;4.35;78.84
85119;BME280;75469;47.654;10.494;2024-03-08T11:59:54;90885.66;;;4.21;78.78
85119;BME280;75469;47.654;10.494;2024-03-08T12:02:22;90884.03;;;4.36;79.96
85119;BME280;75469;47.654;10.494;2024-03-08T12:04:56;90885.44;;;4.10;80.32
85119;BME280;75469;47.654;10.494;2024-03-08T12:07:23;90882.53;;;4.35;79.95
85119;BME280;75469;47.654;10.494;2024-03-08T12:10:14;90871.81;;;4.44;80.25
85119;BME280;75469;47.654;10.494;2024-03-08T12:12:50;90876.88;;;4.33;77.94
85119;BME280;75469;47.654;10.494;2024-03-08T12:15:22;90872.25;;;4.46;79.93
85119;BME280;75469;47.654;10.494;2024-03-08T12:17:50;90871.78;;;4.21;77.17
85119;BME280;75469;47.654;10.494;2024-03-08T12:22:50;90864.03;;;4.47;80.89
85119;BME280;75469;47.654;10.494;2024-03-08T12:25:19;90862.53;;;4.27;79.64
85119;BME280;75469;47.654;10.494;2024-03-08T12:27:46;90861.88;;;3.91;78.52
85119;BME280;75469;47.654;10.494;2024-03-08T12:32:59;90875.91;;;4.41;80.40
85119;BME280;75469;47.654;10.494;2024-03-08T12:35:29;90867.88;;;4.30;80.97
85119;BME280;75469;47.654;10.494;2024-03-08T12:37:57;90868.84;;;4.22;80.26
85119;BME280;75469;47.654;10.494;2024-03-08T12:40:28;90863.91;;;4.40;82.36
85119;BME280;75469;47.654;10.494;2024-03-08T12:43:00;90859.66;;;4.78;80.33
85119;BME280;75469;47.654;10.494;2024-03-08T12:45:26;90856.59;;;4.49;78.16
85119;BME280;75469;47.654;10.494;2024-03-08T12:47:53;90866.94;;;4.65;77.72
85119;BME280;75469;47.654;10.494;2024-03-08T12:50:22;90856.75;;;4.37;77.54
85119;BME280;75469;47.654;10.494;2024-03-08T12:52:50;90845.66;;;4.44;79.04
85119;BME280;75469;47.654;10.494;2024-03-08T12:55:16;90845.59;;;4.40;78.14
85119;BME280;75469;47.654;10.494;2024-03-08T12:57:43;90842.53;;;4.57;79.91
85119;BME280;75469;47.654;10.494;2024-03-08T13:00:10;90832.22;;;4.45;78.65
85119;BME280;75469;47.654;10.494;2024-03-08T13:02:46;90831.72;;;4.17;78.76
85119;BME280;75469;47.654;10.494;2024-03-08T13:05:13;90830.50;;;4.10;81.00
85119;BME280;75469;47.654;10.494;2024-03-08T13:07:43;90823.22;;;4.00;77.29
85119;BME280;75469;47.654;10.494;2024-03-08T13:10:16;90826.03;;;4.34;80.08
85119;BME280;75469;47.654;10.494;2024-03-08T13:12:44;90829.84;;;4.17;78.88
85119;BME280;75469;47.654;10.494;2024-03-08T13:15:10;90827.38;;;4.47;79.37